Time;durP1;ratioP1;P1;durP2;ratioP2;P2;SDS_P1;SDS_P2;PMS_P1;PMS_P2;Temp;Humidity;BMP_temperature;BMP_pressure;BME280_temperature;BME280_humidity;BME280_pressure;Samples;Min_cycle;Max_cycle;Signal;HPM_P1;HPM_P2
2023/02/11 00:00:22;;;;;;;51.13;26.97;;;0.50;69.60;;;;;;5040787;28;20196;-63
2023/02/11 00:02:49;;;;;;;47.93;27.23;;;0.50;69.80;;;;;;5040202;28;20288;-63
2023/02/11 00:05:16;;;;;;;47.17;26.50;;;0.50;69.90;;;;;;5031407;28;20237;-63
2023/02/11 00:07:43;;;;;;;48.53;26.53;;;0.50;69.90;;;;;;5040967;28;20203;-63
2023/02/11 00:10:10;;;;;;;49.87;26.27;;;0.50;70.00;;;;;;5029122;28;20297;-63
2023/02/11 00:12:37;;;;;;;42.13;24.50;;;0.50;70.60;;;;;;5033705;28;20238;-63
2023/02/11 00:15:06;;;;;;;52.50;26.67;;;0.50;70.00;;;;;;5036993;28;20256;-63
2023/02/11 00:17:34;;;;;;;55.07;26.00;;;0.50;70.00;;;;;;5038182;28;20654;-63
2023/02/11 00:20:01;;;;;;;48.93;25.70;;;0.50;70.00;;;;;;5043616;28;20201;-63
2023/02/11 00:22:29;;;;;;;46.40;25.80;;;0.50;70.10;;;;;;5038106;28;20299;-63
2023/02/11 00:24:56;;;;;;;49.17;25.70;;;0.50;70.10;;;;;;5029947;28;20238;-63
2023/02/11 00:27:23;;;;;;;43.80;25.77;;;0.50;70.20;;;;;;5041924;28;20218;-63
2023/02/11 00:29:50;;;;;;;42.60;24.07;;;0.50;70.30;;;;;;5030717;28;20201;-63
2023/02/11 00:32:17;;;;;;;54.90;25.23;;;0.50;70.20;;;;;;5041490;28;20211;-64
2023/02/11 00:34:44;;;;;;;48.17;24.07;;;0.50;70.10;;;;;;5034620;28;20204;-63
2023/02/11 00:37:12;;;;;;;45.97;24.07;;;0.50;70.10;;;;;;5037610;28;20193;-63
2023/02/11 00:39:40;;;;;;;46.17;24.83;;;0.40;70.00;;;;;;5023834;28;20682;-63
2023/02/11 00:42:10;;;;;;;42.67;22.80;;;0.50;70.10;;;;;;5028932;28;20199;-63
2023/02/11 00:44:37;;;;;;;48.43;25.77;;;0.40;70.10;;;;;;5043307;28;20201;-63
2023/02/11 00:47:04;;;;;;;45.00;23.23;;;0.40;70.10;;;;;;5037304;28;20207;-63
2023/02/11 00:49:31;;;;;;;43.60;23.70;;;0.40;70.10;;;;;;5037655;28;20204;-63
2023/02/11 00:51:58;;;;;;;43.80;23.40;;;0.40;70.00;;;;;;5039339;28;20224;-63
2023/02/11 00:54:25;;;;;;;43.33;23.13;;;0.40;70.10;;;;;;5036458;28;20583;-63
2023/02/11 00:56:55;;;;;;;40.37;24.33;;;0.40;70.10;;;;;;5037142;28;20256;-63
2023/02/11 00:59:23;;;;;;;42.50;24.33;;;0.40;70.10;;;;;;5036981;28;20217;-63
2023/02/11 01:01:50;;;;;;;46.27;24.20;;;0.40;69.90;;;;;;5033648;28;20202;-63
2023/02/11 01:04:18;;;;;;;38.43;22.40;;;0.40;69.90;;;;;;5041113;28;20602;-63
2023/02/11 01:06:46;;;;;;;46.43;24.60;;;0.40;70.00;;;;;;5033755;28;20298;-63
2023/02/11 01:09:13;;;;;;;44.73;23.63;;;0.30;70.00;;;;;;5033061;28;20233;-63
2023/02/11 01:11:40;;;;;;;49.00;25.00;;;0.30;70.10;;;;;;5036918;28;20209;-63
2023/02/11 01:14:07;;;;;;;50.93;26.87;;;0.30;70.00;;;;;;5040209;28;20586;-63
2023/02/11 01:16:34;;;;;;;48.50;24.47;;;0.30;70.10;;;;;;5038581;28;20275;-63
2023/02/11 01:19:01;;;;;;;44.57;25.40;;;0.30;70.20;;;;;;5037986;28;20205;-63
2023/02/11 01:21:28;;;;;;;51.80;26.00;;;0.30;70.30;;;;;;5038510;28;20226;-64
2023/02/11 01:23:55;;;;;;;44.10;24.97;;;0.30;70.40;;;;;;5034145;28;20195;-63
2023/02/11 01:26:22;;;;;;;53.33;26.00;;;0.30;70.40;;;;;;5038719;28;20213;-63
2023/02/11 01:28:49;;;;;;;44.40;25.53;;;0.30;70.40;;;;;;5039216;28;20275;-63
2023/02/11 01:31:16;;;;;;;47.00;25.60;;;0.30;70.20;;;;;;5034461;28;20739;-64
2023/02/11 01:33:44;;;;;;;53.00;27.20;;;0.30;70.20;;;;;;5029817;28;20202;-64
2023/02/11 01:36:11;;;;;;;53.10;27.83;;;0.20;70.30;;;;;;5041114;28;20225;-63
2023/02/11 01:38:39;;;;;;;48.83;25.43;;;0.30;70.50;;;;;;5040543;28;20604;-63
2023/02/11 01:41:10;;;;;;;46.83;27.07;;;0.20;70.50;;;;;;5039802;28;20203;-64
2023/02/11 01:43:45;;;;;;;45.07;26.43;;;0.20;70.50;;;;;;5039027;28;20284;-63
2023/02/11 01:46:27;;;;;;;46.90;25.63;;;0.20;70.70;;;;;;5035966;28;20589;-63
2023/02/11 01:49:00;;;;;;;48.87;24.53;;;0.20;70.90;;;;;;5026835;28;20207;-63
2023/02/11 01:51:36;;;;;;;49.03;23.50;;;0.10;70.90;;;;;;5034236;28;20219;-63
2023/02/11 02:00:08;;;;;;;39.70;23.37;;;0.10;71.10;;;;;;5037171;28;20241;-63
2023/02/11 02:02:57;;;;;;;43.63;23.77;;;0.00;71.10;;;;;;5029934;28;20498;-63
2023/02/11 02:05:35;;;;;;;42.23;22.20;;;0.00;71.10;;;;;;5037025;28;20537;-63
2023/02/11 02:08:18;;;;;;;43.63;23.00;;;-0.10;71.20;;;;;;5036205;28;20206;-63
2023/02/11 02:10:48;;;;;;;41.30;23.00;;;-0.10;71.40;;;;;;5037229;28;20696;-64
2023/02/11 02:13:16;;;;;;;44.73;23.63;;;-0.10;71.50;;;;;;5026734;28;20203;-63
2023/02/11 02:15:53;;;;;;;45.90;23.17;;;-0.20;71.50;;;;;;5038636;28;20226;-64
2023/02/11 02:18:42;;;;;;;43.07;22.23;;;-0.20;71.70;;;;;;5033776;28;20202;-63
2023/02/11 02:21:37;;;;;;;46.40;23.17;;;-0.20;71.70;;;;;;5035873;28;20220;-65
2023/02/11 02:24:28;;;;;;;43.20;22.70;;;-0.20;71.80;;;;;;5030814;28;20200;-63
2023/02/11 02:27:21;;;;;;;38.33;21.90;;;-0.20;71.90;;;;;;5035856;28;20598;-63
2023/02/11 02:29:51;;;;;;;41.17;21.47;;;-0.20;71.90;;;;;;5035097;28;20639;-64
2023/02/11 02:32:31;;;;;;;40.90;22.43;;;-0.20;71.90;;;;;;5039268;28;20250;-64
2023/02/11 02:35:19;;;;;;;36.93;20.27;;;-0.20;71.90;;;;;;5039109;28;20385;-63
2023/02/11 02:37:50;;;;;;;42.43;22.27;;;-0.20;72.00;;;;;;5018067;28;20208;-63
2023/02/11 02:40:30;;;;;;;41.47;21.83;;;-0.20;72.00;;;;;;5036724;28;20271;-63
2023/02/11 02:42:58;;;;;;;40.10;21.43;;;-0.30;71.80;;;;;;5031146;28;20213;-63
2023/02/11 02:45:26;;;;;;;42.57;23.37;;;-0.30;71.80;;;;;;5031509;28;20630;-64
2023/02/11 02:47:54;;;;;;;40.07;22.37;;;-0.30;71.90;;;;;;5033820;28;20283;-63
2023/02/11 02:50:28;;;;;;;39.30;21.90;;;-0.30;72.00;;;;;;5036180;28;20237;-63
2023/02/11 02:52:56;;;;;;;41.37;21.53;;;-0.40;72.00;;;;;;5032825;28;20709;-63
2023/02/11 02:55:41;;;;;;;41.67;22.97;;;-0.40;72.00;;;;;;5028185;28;20301;-63
2023/02/11 02:58:12;;;;;;;39.63;22.20;;;-0.40;72.10;;;;;;5033336;28;20539;-63
2023/02/11 03:01:02;;;;;;;41.83;21.80;;;-0.40;72.10;;;;;;5042605;28;20574;-63
2023/02/11 03:03:55;;;;;;;38.40;20.20;;;-0.40;72.10;;;;;;5039254;28;20193;-64
2023/02/11 03:06:43;;;;;;;34.43;20.57;;;-0.40;72.10;;;;;;5016851;28;20563;-63
2023/02/11 03:09:24;;;;;;;38.10;20.40;;;-0.50;72.10;;;;;;5038814;28;20213;-63
2023/02/11 03:11:52;;;;;;;37.90;20.93;;;-0.50;72.20;;;;;;5038814;28;20535;-63
2023/02/11 03:14:23;;;;;;;38.50;20.43;;;-0.50;72.20;;;;;;5037013;28;20567;-63
2023/02/11 03:16:53;;;;;;;40.33;19.40;;;-0.50;72.20;;;;;;5038849;28;20663;-63
2023/02/11 03:19:28;;;;;;;40.50;20.33;;;-0.50;72.20;;;;;;5035404;28;20195;-63
2023/02/11 03:21:56;;;;;;;35.63;20.17;;;-0.50;72.30;;;;;;5036005;28;20190;-63
2023/02/11 03:24:36;;;;;;;40.17;21.00;;;-0.50;72.20;;;;;;5043039;28;20265;-64
2023/02/11 03:27:20;;;;;;;36.73;20.37;;;-0.50;72.10;;;;;;5045395;28;20199;-63
2023/02/11 03:29:56;;;;;;;38.37;20.27;;;-0.50;72.10;;;;;;5036412;28;20204;-63
2023/02/11 03:32:38;;;;;;;32.97;18.73;;;-0.50;72.20;;;;;;5040282;28;20220;-63
2023/02/11 03:35:23;;;;;;;38.67;20.27;;;-0.50;72.10;;;;;;5037815;28;20274;-63
2023/02/11 03:38:01;;;;;;;37.87;19.83;;;-0.50;72.10;;;;;;5038358;28;20293;-63
2023/02/11 03:40:34;;;;;;;34.67;19.33;;;-0.50;72.10;;;;;;5032395;28;20217;-64
2023/02/11 03:43:17;;;;;;;33.33;19.20;;;-0.50;72.10;;;;;;5034488;28;20206;-63
2023/02/11 03:45:46;;;;;;;34.50;19.60;;;-0.50;71.90;;;;;;5039113;28;20202;-63
2023/02/11 03:48:18;;;;;;;32.00;18.33;;;-0.50;71.90;;;;;;5037193;28;20652;-63
2023/02/11 03:50:47;;;;;;;40.77;19.40;;;-0.50;72.00;;;;;;5037160;28;20222;-63
2023/02/11 03:53:14;;;;;;;31.90;18.10;;;-0.50;72.10;;;;;;5035836;28;20226;-63
2023/02/11 03:55:45;;;;;;;36.20;19.03;;;-0.50;72.00;;;;;;5040094;28;20198;-63
2023/02/11 03:58:12;;;;;;;31.70;17.80;;;-0.50;71.90;;;;;;5040724;28;20195;-63
2023/02/11 04:00:41;;;;;;;31.67;17.33;;;-0.50;71.90;;;;;;5039005;28;20205;-63
2023/02/11 04:03:10;;;;;;;35.90;18.87;;;-0.50;71.90;;;;;;5038254;28;20204;-63
2023/02/11 04:05:38;;;;;;;31.77;18.37;;;-0.50;71.90;;;;;;5032888;28;20318;-63
2023/02/11 04:08:05;;;;;;;35.07;18.00;;;-0.50;71.70;;;;;;5043193;28;20195;-63
2023/02/11 04:10:32;;;;;;;29.37;17.53;;;-0.60;71.70;;;;;;5040543;28;20244;-62
2023/02/11 04:12:59;;;;;;;33.43;17.87;;;-0.60;71.80;;;;;;5035545;28;20200;-63
2023/02/11 04:15:26;;;;;;;31.07;16.73;;;-0.60;72.50;;;;;;5039406;28;20245;-63
2023/02/11 04:17:53;;;;;;;30.80;16.70;;;-0.60;71.70;;;;;;5026205;28;20740;-63
2023/02/11 04:20:21;;;;;;;27.60;14.93;;;-0.50;71.80;;;;;;5039859;28;20190;-63
2023/02/11 04:22:48;;;;;;;30.67;16.67;;;-0.60;72.40;;;;;;5035317;28;20205;-63
2023/02/11 04:25:15;;;;;;;29.50;15.77;;;-0.60;71.60;;;;;;5044818;28;20279;-63
2023/02/11 04:27:42;;;;;;;32.50;16.77;;;-0.50;71.50;;;;;;5037470;28;20621;-63
2023/02/11 04:30:09;;;;;;;26.07;14.93;;;-0.50;71.50;;;;;;5036234;28;20204;-62
2023/02/11 04:32:36;;;;;;;31.30;16.63;;;-0.50;72.10;;;;;;5039332;28;20299;-63
2023/02/11 04:35:05;;;;;;;32.07;16.60;;;-0.50;71.30;;;;;;5034340;28;20236;-62
2023/02/11 04:37:32;;;;;;;32.50;16.53;;;-0.50;71.20;;;;;;5031318;28;20294;-62
2023/02/11 04:39:59;;;;;;;32.93;17.10;;;-0.50;71.20;;;;;;5042079;28;20263;-62
2023/02/11 04:42:26;;;;;;;34.97;17.73;;;-0.50;71.30;;;;;;5029493;28;20233;-63
2023/02/11 04:44:53;;;;;;;27.00;17.23;;;-0.50;71.90;;;;;;5037336;28;20196;-62
2023/02/11 04:47:20;;;;;;;30.27;17.87;;;-0.50;71.20;;;;;;5039055;28;20198;-62
2023/02/11 04:49:47;;;;;;;31.40;17.87;;;-0.50;71.20;;;;;;5024108;28;20256;-63
2023/02/11 04:52:14;;;;;;;27.70;16.87;;;-0.60;71.20;;;;;;5034355;28;20218;-62
2023/02/11 04:54:41;;;;;;;28.77;16.37;;;-0.50;71.30;;;;;;5035556;28;20273;-62
2023/02/11 04:57:08;;;;;;;30.57;16.90;;;-0.60;71.30;;;;;;5034567;28;20659;-62
2023/02/11 04:59:35;;;;;;;24.83;15.03;;;-0.60;71.40;;;;;;5035596;28;20674;-63
2023/02/11 05:02:03;;;;;;;28.40;15.53;;;-0.60;71.40;;;;;;5034628;28;20282;-62
2023/02/11 05:04:30;;;;;;;24.83;13.30;;;-0.60;71.40;;;;;;5034244;28;20193;-62
2023/02/11 05:06:57;;;;;;;28.87;14.03;;;-0.60;71.50;;;;;;5034428;28;20643;-62
2023/02/11 05:09:24;;;;;;;24.37;12.97;;;-0.60;71.40;;;;;;5039131;28;20214;-62
2023/02/11 05:11:52;;;;;;;29.63;14.77;;;-0.70;71.30;;;;;;5037915;28;20209;-62
2023/02/11 05:14:19;;;;;;;25.70;14.40;;;-0.70;71.30;;;;;;5037431;28;20197;-62
2023/02/11 05:16:46;;;;;;;26.00;14.03;;;-0.70;71.40;;;;;;5036503;28;20552;-62
2023/02/11 05:19:13;;;;;;;25.77;13.93;;;-0.70;71.40;;;;;;5038371;28;20279;-62
2023/02/11 05:21:40;;;;;;;28.87;13.63;;;-0.70;71.40;;;;;;5036240;28;20198;-62
2023/02/11 05:24:26;;;;;;;22.80;13.10;;;-0.70;71.40;;;;;;5033917;28;20655;-62
2023/02/11 05:26:53;;;;;;;25.37;13.17;;;-0.70;71.30;;;;;;5040570;28;20197;-62
2023/02/11 05:29:20;;;;;;;26.70;13.07;;;-0.80;71.20;;;;;;5027634;28;20204;-62
2023/02/11 05:31:47;;;;;;;27.53;12.67;;;-0.80;71.20;;;;;;5037352;28;20573;-62
2023/02/11 05:34:14;;;;;;;22.70;12.23;;;-0.80;71.20;;;;;;5040973;28;20220;-62
2023/02/11 05:36:41;;;;;;;21.13;12.87;;;-0.80;71.20;;;;;;5032272;28;20263;-62
2023/02/11 05:39:08;;;;;;;25.30;12.40;;;-0.80;71.20;;;;;;5040352;28;20682;-62
2023/02/11 05:41:35;;;;;;;19.83;11.47;;;-0.80;71.10;;;;;;5040833;28;20528;-62
2023/02/11 05:44:02;;;;;;;22.73;11.47;;;-0.70;71.10;;;;;;5032353;28;20219;-62
2023/02/11 05:46:29;;;;;;;23.23;12.23;;;-0.70;71.00;;;;;;5034379;28;20204;-62
2023/02/11 05:48:57;;;;;;;23.03;11.03;;;-0.70;71.00;;;;;;5033526;28;20202;-62
2023/02/11 05:51:24;;;;;;;24.07;12.63;;;-0.70;70.90;;;;;;5039814;28;20201;-62
2023/02/11 05:53:51;;;;;;;24.70;12.23;;;-0.70;70.80;;;;;;5036543;28;20208;-62
2023/02/11 05:56:18;;;;;;;24.10;12.40;;;-0.70;70.70;;;;;;5039836;28;20196;-62
2023/02/11 05:58:45;;;;;;;25.07;12.00;;;-0.70;70.70;;;;;;5026715;28;20204;-62
2023/02/11 06:01:12;;;;;;;23.03;13.30;;;-0.70;70.70;;;;;;5029989;28;20192;-63
2023/02/11 06:03:39;;;;;;;24.77;11.83;;;-0.70;70.70;;;;;;5030198;28;20208;-62
2023/02/11 06:06:11;;;;;;;21.07;12.40;;;-0.70;70.50;;;;;;5038893;28;20334;-62
2023/02/11 06:08:38;;;;;;;23.80;11.37;;;-0.70;70.40;;;;;;5042815;28;20191;-63
2023/02/11 06:11:05;;;;;;;23.60;11.97;;;-0.70;70.30;;;;;;5040265;28;20234;-62
2023/02/11 06:13:32;;;;;;;24.53;11.80;;;-0.80;70.20;;;;;;5036478;28;20204;-62
2023/02/11 06:16:01;;;;;;;18.80;11.50;;;-0.70;70.30;;;;;;5037577;28;20262;-62
2023/02/11 06:18:28;;;;;;;25.53;12.90;;;-0.80;70.20;;;;;;5037503;28;20217;-62
2023/02/11 06:20:55;;;;;;;23.03;13.60;;;-0.80;70.20;;;;;;5035371;28;20268;-62
2023/02/11 06:23:22;;;;;;;20.40;11.63;;;-0.70;70.30;;;;;;5034978;28;20199;-62
2023/02/11 06:25:50;;;;;;;26.43;11.77;;;-0.70;70.30;;;;;;5033820;28;20210;-62
2023/02/11 06:28:18;;;;;;;23.17;11.90;;;-0.70;70.20;;;;;;5037797;28;20589;-62
2023/02/11 06:30:45;;;;;;;23.87;12.30;;;-0.70;70.20;;;;;;5029925;28;20289;-62
2023/02/11 06:33:12;;;;;;;22.50;12.43;;;-0.70;70.20;;;;;;5035508;28;20221;-61
2023/02/11 06:35:39;;;;;;;23.23;12.87;;;-0.60;70.20;;;;;;5038609;28;20210;-63
2023/02/11 06:38:06;;;;;;;22.03;12.73;;;-0.60;70.20;;;;;;5033182;28;20626;-62
2023/02/11 06:40:33;;;;;;;24.23;11.60;;;-0.50;70.20;;;;;;5037174;28;20198;-63
2023/02/11 06:43:01;;;;;;;23.07;11.27;;;-0.50;70.10;;;;;;5035479;28;20230;-62
2023/02/11 06:45:28;;;;;;;26.90;12.13;;;-0.50;70.00;;;;;;5032576;28;20207;-62
2023/02/11 06:47:55;;;;;;;23.73;12.60;;;-0.50;70.00;;;;;;5029314;28;20208;-62
2023/02/11 06:50:22;;;;;;;25.87;12.33;;;-0.40;70.00;;;;;;5040691;28;20209;-62
2023/02/11 06:52:49;;;;;;;23.00;12.83;;;-0.30;70.00;;;;;;5029654;28;20208;-62
2023/02/11 06:55:16;;;;;;;26.53;13.03;;;-0.20;69.90;;;;;;5030512;28;20266;-62
2023/02/11 06:57:43;;;;;;;29.63;12.57;;;-0.10;69.70;;;;;;5035402;28;20315;-62
2023/02/11 07:00:11;;;;;;;19.77;12.17;;;0.00;69.40;;;;;;5039562;28;20589;-62
2023/02/11 07:02:37;;;;;;;23.53;11.83;;;0.20;69.00;;;;;;5034715;28;20230;-62
2023/02/11 07:05:06;;;;;;;20.77;11.63;;;0.50;68.60;;;;;;5039151;28;20203;-62
2023/02/11 07:07:33;;;;;;;22.50;11.23;;;0.70;68.00;;;;;;5038523;28;20239;-62
2023/02/11 07:10:02;;;;;;;21.40;11.17;;;1.00;67.30;;;;;;5035041;28;20213;-62
2023/02/11 07:12:30;;;;;;;20.67;11.63;;;1.30;66.40;;;;;;5032770;28;20578;-62
2023/02/11 07:14:57;;;;;;;25.93;11.60;;;1.60;65.40;;;;;;5035338;28;20252;-63
2023/02/11 07:17:24;;;;;;;16.57;10.67;;;1.90;64.50;;;;;;5015615;28;20667;-62
2023/02/11 07:19:51;;;;;;;20.37;11.93;;;2.20;63.20;;;;;;5037944;28;20202;-62
2023/02/11 07:22:18;;;;;;;22.77;11.47;;;2.60;62.10;;;;;;5032246;28;20264;-62
2023/02/11 07:24:45;;;;;;;19.20;10.70;;;2.90;60.70;;;;;;5029553;28;20201;-62
2023/02/11 07:27:12;;;;;;;20.17;11.03;;;3.20;60.40;;;;;;5039805;28;20200;-62
2023/02/11 07:29:41;;;;;;;21.60;12.03;;;3.40;59.10;;;;;;5036999;28;20285;-62
2023/02/11 07:32:09;;;;;;;21.47;11.77;;;3.70;58.70;;;;;;5033634;28;20210;-62
2023/02/11 07:34:36;;;;;;;19.73;11.00;;;4.10;57.90;;;;;;5031908;28;20200;-62
2023/02/11 07:37:03;;;;;;;22.50;12.07;;;4.40;57.10;;;;;;5035949;28;20532;-62
2023/02/11 07:39:31;;;;;;;21.23;11.87;;;4.70;56.40;;;;;;5030199;28;20576;-62
2023/02/11 07:41:58;;;;;;;23.27;11.10;;;4.90;55.60;;;;;;5031726;28;20280;-62
2023/02/11 07:44:26;;;;;;;20.37;11.70;;;5.10;55.20;;;;;;5037322;28;20196;-62
2023/02/11 07:46:53;;;;;;;22.63;11.03;;;5.30;55.10;;;;;;5032299;28;20202;-62
2023/02/11 07:49:20;;;;;;;23.40;10.87;;;5.50;55.10;;;;;;5030417;28;20193;-62
2023/02/11 07:51:49;;;;;;;22.00;11.77;;;5.50;55.10;;;;;;5040334;28;20230;-62
2023/02/11 07:54:17;;;;;;;21.53;11.10;;;5.60;55.20;;;;;;5040849;28;20201;-62
2023/02/11 07:56:44;;;;;;;20.30;11.53;;;5.60;55.40;;;;;;5042405;28;20197;-63
2023/02/11 07:59:11;;;;;;;22.50;11.17;;;5.50;55.50;;;;;;5038864;28;20264;-63
2023/02/11 08:01:38;;;;;;;21.40;10.70;;;5.40;56.00;;;;;;5035810;28;20195;-62
2023/02/11 08:04:05;;;;;;;19.37;9.60;;;5.30;56.60;;;;;;5042008;28;20201;-63
2023/02/11 08:06:33;;;;;;;18.23;11.20;;;5.20;56.90;;;;;;5038819;28;20293;-63
2023/02/11 08:09:06;;;;;;;23.20;11.10;;;5.00;57.20;;;;;;5038011;28;20200;-63
2023/02/11 08:11:33;;;;;;;23.13;11.20;;;4.90;57.50;;;;;;5033799;28;20296;-63
2023/02/11 08:14:00;;;;;;;20.57;11.33;;;4.90;57.90;;;;;;5033146;28;20310;-63
2023/02/11 08:16:30;;;;;;;23.73;11.73;;;4.70;58.30;;;;;;5036938;28;20202;-62
2023/02/11 08:19:00;;;;;;;25.93;11.50;;;4.80;58.90;;;;;;5032288;28;20659;-63
2023/02/11 08:21:27;;;;;;;21.00;11.07;;;4.70;59.20;;;;;;5043125;28;20197;-63
2023/02/11 08:23:55;;;;;;;25.07;11.63;;;4.80;59.50;;;;;;5040222;28;20202;-63
2023/02/11 08:26:25;;;;;;;24.37;12.77;;;4.80;59.60;;;;;;5037383;28;20198;-63
2023/02/11 08:28:54;;;;;;;23.37;11.47;;;4.90;59.50;;;;;;5037078;28;20213;-63
2023/02/11 08:31:24;;;;;;;20.60;11.90;;;4.90;59.60;;;;;;5038129;28;20206;-63
2023/02/11 08:33:53;;;;;;;21.30;12.03;;;5.00;59.60;;;;;;5033704;28;20198;-63
2023/02/11 08:36:22;;;;;;;21.07;11.50;;;5.10;59.40;;;;;;5039021;28;20215;-63
2023/02/11 08:38:50;;;;;;;20.63;10.87;;;5.20;58.90;;;;;;5038775;28;20221;-63
2023/02/11 08:41:17;;;;;;;24.73;12.30;;;5.30;58.40;;;;;;5028897;28;20196;-63
2023/02/11 08:43:45;;;;;;;21.27;12.20;;;5.40;58.20;;;;;;5033979;28;20269;-63
2023/02/11 08:46:16;;;;;;;26.40;12.33;;;5.50;58.10;;;;;;5043445;28;20256;-63
2023/02/11 08:48:44;;;;;;;22.23;11.80;;;5.50;58.20;;;;;;5040792;28;20203;-64
2023/02/11 08:51:15;;;;;;;23.13;12.47;;;5.60;58.20;;;;;;5039714;28;20591;-64
2023/02/11 08:53:43;;;;;;;33.00;12.63;;;5.70;58.20;;;;;;5039098;28;20198;-64
2023/02/11 08:56:11;;;;;;;22.47;13.07;;;5.90;58.00;;;;;;5040443;28;20196;-64
2023/02/11 08:58:39;;;;;;;24.00;13.27;;;5.90;57.30;;;;;;5036721;28;20222;-64
2023/02/11 09:01:11;;;;;;;28.40;14.03;;;6.10;56.80;;;;;;5039804;28;20194;-64
2023/02/11 09:03:39;;;;;;;22.20;13.47;;;6.20;56.80;;;;;;5035822;28;20198;-64
2023/02/11 09:06:09;;;;;;;23.67;14.53;;;6.30;56.10;;;;;;5032417;28;20330;-65
2023/02/11 09:08:41;;;;;;;22.23;13.00;;;6.30;55.60;;;;;;5038144;28;20761;-65
2023/02/11 09:11:12;;;;;;;28.63;14.80;;;6.40;54.90;;;;;;5032998;28;20262;-64
2023/02/11 09:13:41;;;;;;;23.77;13.83;;;6.50;54.70;;;;;;5041857;28;20746;-65
2023/02/11 09:16:17;;;;;;;22.90;13.90;;;6.50;53.60;;;;;;5040591;28;20581;-65
2023/02/11 09:18:44;;;;;;;23.20;13.83;;;6.50;51.90;;;;;;5035857;28;20734;-65
2023/02/11 09:21:12;;;;;;;26.93;15.00;;;6.50;53.00;;;;;;5042876;28;20237;-65
2023/02/11 09:23:42;;;;;;;23.23;15.43;;;6.50;53.30;;;;;;5040015;28;20616;-65
2023/02/11 09:26:20;;;;;;;24.63;14.43;;;6.60;54.10;;;;;;5040642;28;20203;-65
2023/02/11 09:28:47;;;;;;;25.13;14.63;;;6.70;53.30;;;;;;5032421;28;20300;-65
2023/02/11 09:31:18;;;;;;;27.07;15.57;;;6.70;53.20;;;;;;5038602;28;20289;-65
2023/02/11 09:33:47;;;;;;;27.50;15.33;;;6.80;53.90;;;;;;5034286;28;20573;-65
2023/02/11 09:36:20;;;;;;;28.23;14.63;;;7.00;53.90;;;;;;5031778;28;20260;-65
2023/02/11 09:38:48;;;;;;;27.70;15.33;;;7.10;53.70;;;;;;5036401;28;20677;-65
2023/02/11 09:41:39;;;;;;;23.20;14.17;;;7.20;53.50;;;;;;5033204;28;20234;-65
2023/02/11 09:44:16;;;;;;;24.87;15.03;;;7.40;53.20;;;;;;5036767;28;20239;-65
2023/02/11 09:46:55;;;;;;;32.47;15.57;;;7.50;52.00;;;;;;5036232;28;20199;-65
2023/02/11 09:49:31;;;;;;;29.00;15.63;;;7.60;52.10;;;;;;5032815;28;20224;-66
2023/02/11 09:52:05;;;;;;;25.33;15.30;;;7.60;52.30;;;;;;5035562;28;20205;-66
2023/02/11 09:54:44;;;;;;;25.70;15.53;;;7.70;52.40;;;;;;5038382;28;20602;-65
2023/02/11 09:57:11;;;;;;;26.23;15.00;;;7.70;52.00;;;;;;5032414;28;20295;-65
2023/02/11 09:59:55;;;;;;;23.70;14.50;;;7.70;51.80;;;;;;5030213;28;20537;-65
2023/02/11 10:02:43;;;;;;;32.40;16.23;;;7.80;52.00;;;;;;5033939;28;20630;-65
2023/02/11 10:05:49;;;;;;;24.87;15.30;;;7.80;51.80;;;;;;5023636;28;21879;-65
2023/02/11 10:08:24;;;;;;;25.63;15.87;;;7.80;51.70;;;;;;5012407;28;20220;-65
2023/02/11 10:10:56;;;;;;;25.97;14.77;;;7.90;52.30;;;;;;5032208;28;20242;-65
2023/02/11 10:13:26;;;;;;;24.23;15.37;;;8.00;51.80;;;;;;5030324;28;20228;-65
2023/02/11 10:16:16;;;;;;;24.23;14.67;;;8.20;51.80;;;;;;5036967;28;20670;-65
2023/02/11 10:18:58;;;;;;;25.37;15.27;;;8.40;51.50;;;;;;5035282;28;20658;-65
2023/02/11 10:22:06;;;;;;;26.00;16.23;;;8.60;51.20;;;;;;5032062;28;20208;-65
2023/02/11 10:24:34;;;;;;;27.60;15.67;;;8.70;50.30;;;;;;5030535;28;20242;-65
2023/02/11 10:27:16;;;;;;;24.70;15.03;;;8.70;50.10;;;;;;5039626;28;20191;-65
2023/02/11 10:29:52;;;;;;;27.40;16.30;;;8.80;50.30;;;;;;5030752;28;20313;-65
2023/02/11 10:32:37;;;;;;;28.03;16.23;;;9.00;50.00;;;;;;5035434;28;20670;-65
2023/02/11 10:35:14;;;;;;;29.90;17.27;;;9.00;48.70;;;;;;5031989;28;20540;-65
2023/02/11 10:37:41;;;;;;;29.03;16.70;;;9.00;49.50;;;;;;5033877;28;20252;-65
2023/02/11 10:40:20;;;;;;;27.60;16.37;;;9.00;50.40;;;;;;5035537;28;20205;-65
2023/02/11 10:42:50;;;;;;;27.07;16.30;;;9.00;49.50;;;;;;5036378;28;20200;-65
2023/02/11 10:45:24;;;;;;;25.57;15.90;;;9.10;49.40;;;;;;5032068;28;20529;-65
2023/02/11 10:47:51;;;;;;;25.13;15.67;;;9.20;49.20;;;;;;5036629;28;20209;-64
2023/02/11 10:50:20;;;;;;;28.60;15.27;;;9.20;48.90;;;;;;5022128;28;20219;-65
2023/02/11 10:52:48;;;;;;;26.43;15.80;;;9.40;47.70;;;;;;5019161;28;20210;-66
2023/02/11 10:55:25;;;;;;;25.50;16.80;;;9.50;47.70;;;;;;5035836;28;20277;-65
2023/02/11 10:58:01;;;;;;;30.03;16.33;;;9.60;47.80;;;;;;5035844;28;20221;-65
2023/02/11 11:00:41;;;;;;;28.13;16.87;;;9.70;47.70;;;;;;5035641;28;20206;-65
2023/02/11 11:03:18;;;;;;;26.43;16.87;;;9.80;47.10;;;;;;5037405;28;20229;-65
2023/02/11 11:05:52;;;;;;;24.87;16.33;;;10.00;45.90;;;;;;5039301;28;20233;-65
2023/02/11 11:08:19;;;;;;;24.17;15.23;;;10.00;44.70;;;;;;5034088;28;20218;-65
2023/02/11 11:11:11;;;;;;;30.30;16.57;;;10.00;45.20;;;;;;5032796;28;20259;-65
2023/02/11 11:13:52;;;;;;;31.87;17.43;;;10.00;44.70;;;;;;5035040;28;20285;-65
2023/02/11 11:16:34;;;;;;;27.30;17.33;;;10.00;44.80;;;;;;5031601;28;20197;-64
2023/02/11 11:19:06;;;;;;;25.10;15.53;;;10.10;46.00;;;;;;5035862;28;20669;-65
2023/02/11 11:21:44;;;;;;;30.03;17.00;;;10.20;46.50;;;;;;5035599;28;20206;-65
2023/02/11 11:24:38;;;;;;;30.63;16.57;;;10.50;45.70;;;;;;5030051;28;20274;-65
2023/02/11 11:27:06;;;;;;;29.07;15.87;;;10.60;45.50;;;;;;5029850;28;20645;-65
2023/02/11 11:29:39;;;;;;;25.90;15.50;;;10.80;44.40;;;;;;5038459;28;20321;-65
2023/02/11 11:32:22;;;;;;;26.77;16.80;;;10.90;43.00;;;;;;5029737;28;20219;-65
2023/02/11 11:34:55;;;;;;;26.57;16.70;;;10.90;43.80;;;;;;5042517;28;20216;-65
2023/02/11 11:37:26;;;;;;;28.43;16.70;;;11.00;44.70;;;;;;5038037;28;20214;-65
2023/02/11 11:40:20;;;;;;;33.23;16.73;;;11.20;45.50;;;;;;5034239;28;20219;-65
2023/02/11 11:43:02;;;;;;;30.00;16.80;;;11.40;45.40;;;;;;5040968;28;20285;-65
2023/02/11 11:45:29;;;;;;;29.23;17.00;;;11.70;45.00;;;;;;5035791;28;20622;-65
2023/02/11 11:48:22;;;;;;;25.73;17.57;;;11.70;43.20;;;;;;5033971;28;20215;-65
2023/02/11 11:51:00;;;;;;;30.80;19.03;;;11.60;42.40;;;;;;5043978;28;20217;-65
2023/02/11 11:53:29;;;;;;;30.37;17.63;;;11.50;41.20;;;;;;5031716;28;20704;-65
2023/02/11 11:56:13;;;;;;;27.27;17.93;;;11.30;42.90;;;;;;5043173;28;20269;-65
2023/02/11 11:58:40;;;;;;;31.07;18.23;;;11.10;43.80;;;;;;5040885;28;20210;-65
2023/02/11 12:01:17;;;;;;;26.30;17.77;;;11.10;44.50;;;;;;5042105;28;20214;-65
2023/02/11 12:04:14;;;;;;;28.97;18.43;;;11.00;44.80;;;;;;5037130;28;20198;-65
2023/02/11 12:07:00;;;;;;;28.20;17.93;;;11.00;45.10;;;;;;5037341;28;20254;-65
2023/02/11 12:09:34;;;;;;;32.60;19.00;;;11.00;44.80;;;;;;5035304;28;20202;-65
2023/02/11 12:12:06;;;;;;;26.53;18.20;;;11.00;44.50;;;;;;5034352;28;20574;-65
2023/02/11 12:14:57;;;;;;;28.87;17.63;;;11.00;44.30;;;;;;5041901;28;20220;-66
2023/02/11 12:17:40;;;;;;;30.20;18.83;;;11.00;43.60;;;;;;5017878;28;20219;-65
2023/02/11 12:20:35;;;;;;;28.80;18.37;;;10.90;44.10;;;;;;5040774;28;20313;-65
2023/02/11 12:23:20;;;;;;;29.70;18.07;;;10.90;44.10;;;;;;5030071;28;20201;-65
2023/02/11 12:26:09;;;;;;;30.83;18.33;;;10.90;43.10;;;;;;5040229;28;20198;-65
2023/02/11 12:29:03;;;;;;;27.13;17.07;;;10.80;43.30;;;;;;5038698;28;20297;-65
2023/02/11 12:31:45;;;;;;;26.87;17.83;;;10.70;43.80;;;;;;5032843;28;20202;-65
2023/02/11 12:34:51;;;;;;;31.17;17.57;;;10.70;44.00;;;;;;5035229;28;20530;-65
2023/02/11 12:37:42;;;;;;;30.33;18.83;;;10.80;44.30;;;;;;5040190;28;20316;-65
2023/02/11 12:40:20;;;;;;;32.87;20.50;;;10.90;44.40;;;;;;5020249;28;20212;-65
2023/02/11 12:43:15;;;;;;;32.00;18.53;;;11.10;44.20;;;;;;5035120;28;20226;-65
2023/02/11 12:46:01;;;;;;;32.33;19.63;;;11.30;44.10;;;;;;5028681;28;20523;-65
2023/02/11 12:49:06;;;;;;;27.23;18.53;;;11.50;44.10;;;;;;5033510;28;20636;-65
2023/02/11 12:51:54;;;;;;;25.97;17.70;;;11.70;43.20;;;;;;5037446;28;20214;-65
2023/02/11 12:54:46;;;;;;;25.07;16.97;;;11.80;43.10;;;;;;5037231;28;20198;-65
2023/02/11 12:57:29;;;;;;;28.67;18.87;;;11.90;42.90;;;;;;5037982;28;20202;-66
2023/02/11 13:00:21;;;;;;;29.87;18.87;;;12.10;42.10;;;;;;5038055;28;20218;-65
2023/02/11 13:03:12;;;;;;;31.63;19.70;;;12.20;41.90;;;;;;5031093;28;20249;-65